createdAt,value
2018-04-02T00:01:08.226Z,98791.23
2018-04-02T00:02:48.369Z,98786.80
2018-04-02T00:04:25.684Z,98713.67
2018-04-02T00:06:03.546Z,98654.66
2018-04-02T00:07:43.233Z,98613.94
2018-04-02T00:09:21.330Z,98582.02
2018-04-02T00:10:58.862Z,98664.36
2018-04-02T00:12:37.886Z,98635.89
2018-04-02T00:14:15.787Z,98518.21
2018-04-02T00:15:54.077Z,98439.06
2018-04-02T00:17:31.509Z,98423.36
2018-04-02T00:19:08.793Z,98453.11
2018-04-02T00:20:46.277Z,98414.16
2018-04-02T00:22:23.951Z,98300.68
2018-04-02T00:24:01.689Z,98208.94
2018-04-02T00:25:39.430Z,98204.62
2018-04-02T00:27:16.959Z,98308.92
2018-04-02T00:28:54.726Z,98318.13
2018-04-02T00:30:32.901Z,98218.13
2018-04-02T00:32:11.108Z,98117.78
2018-04-02T00:33:48.718Z,98036.29
2018-04-02T00:35:26.777Z,97980.03
2018-04-02T00:37:05.341Z,97968.28
2018-04-02T00:38:43.052Z,97955.64
2018-04-02T00:40:21.072Z,97967.42
2018-04-02T00:41:59.736Z,98008.82
2018-04-02T00:43:37.263Z,98048.02
2018-04-02T00:45:18.151Z,98020.09
2018-04-02T00:46:57.518Z,97961.33
2018-04-02T00:48:35.518Z,97934.33
2018-04-02T00:50:14.657Z,97930.45
2018-04-02T00:51:52.424Z,97930.80
2018-04-02T00:53:30.164Z,97932.11
2018-04-02T00:55:07.789Z,97917.73
2018-04-02T00:56:46.532Z,97906.39
2018-04-02T00:58:24.532Z,97915.60
2018-04-02T01:00:03.622Z,97925.95
2018-04-02T01:01:42.703Z,97933.36
2018-04-02T01:03:20.821Z,97990.92
2018-04-02T01:05:00.737Z,98028.80
2018-04-02T01:06:38.908Z,98012.75
2018-04-02T01:08:17.365Z,97969.58
2018-04-02T01:09:55.177Z,97966.97
2018-04-02T01:11:33.424Z,97966.08
2018-04-02T01:13:12.632Z,97936.37
2018-04-02T01:14:52.435Z,97931.66
2018-04-02T01:16:30.540Z,97886.38
2018-04-02T01:18:08.639Z,97820.17
2018-04-02T01:19:47.699Z,97765.33
2018-04-02T01:21:25.833Z,97702.69
2018-04-02T01:23:04.026Z,97697.09
2018-04-02T01:24:41.577Z,97734.03
2018-04-02T01:26:19.375Z,97824.99
2018-04-02T01:27:57.688Z,97978.25
2018-04-02T01:29:35.534Z,98104.69
2018-04-02T01:31:13.724Z,98217.21
2018-04-02T01:32:52.419Z,98163.98
2018-04-02T01:34:31.017Z,98094.22
2018-04-02T01:36:09.088Z,98070.22
2018-04-02T01:37:46.721Z,98044.95
2018-04-02T01:39:24.357Z,97993.54
2018-04-02T01:41:02.139Z,98009.70
2018-04-02T01:42:43.041Z,97998.77
2018-04-02T01:44:23.892Z,97950.02
2018-04-02T01:46:03.483Z,97909.91
2018-04-02T01:47:43.438Z,97880.69
2018-04-02T01:49:21.606Z,97843.70
2018-04-02T01:51:00.926Z,97792.73
2018-04-02T01:52:42.298Z,97761.78
2018-04-02T01:54:22.204Z,97755.34
2018-04-02T01:55:59.652Z,97719.27
2018-04-02T01:57:37.355Z,97674.78
2018-04-02T01:59:15.154Z,97665.69
2018-04-02T02:00:52.750Z,97671.73
2018-04-02T02:02:30.860Z,97647.85
2018-04-02T02:04:09.521Z,97593.13
2018-04-02T02:05:46.388Z,97580.58
2018-04-02T02:07:24.805Z,97571.38
2018-04-02T02:09:03.547Z,97587.42
2018-04-02T02:10:41.094Z,97590.06
2018-04-02T02:12:17.896Z,97614.42
2018-04-02T02:13:55.636Z,97629.70
2018-04-02T02:15:33.038Z,97642.69
2018-04-02T02:17:10.083Z,97669.65
2018-04-02T02:18:48.770Z,97668.78
2018-04-02T02:20:27.441Z,97677.88
2018-04-02T02:22:04.842Z,97665.72
2018-04-02T02:23:43.239Z,97666.15
2018-04-02T02:25:21.141Z,97670.88
2018-04-02T02:26:59.628Z,97656.57
2018-04-02T02:28:36.424Z,97617.89
2018-04-02T02:30:14.723Z,97554.81
2018-04-02T02:31:53.479Z,97501.00
2018-04-02T02:33:31.822Z,97424.08
2018-04-02T02:35:09.231Z,97393.19
2018-04-02T02:36:46.992Z,97376.78
2018-04-02T02:38:23.917Z,97359.38
2018-04-02T02:40:01.885Z,97352.95
2018-04-02T02:41:38.895Z,97353.77
2018-04-02T02:43:17.331Z,97372.47
2018-04-02T02:44:55.102Z,97385.03
2018-04-02T02:46:32.789Z,97382.42
2018-04-02T02:48:10.467Z,97387.20
2018-04-02T02:49:48.230Z,97374.64
2018-04-02T02:51:25.117Z,97397.59
2018-04-02T02:54:43.764Z,97403.27
2018-04-02T02:56:21.277Z,97451.48
2018-04-02T02:57:58.992Z,97511.44
2018-04-02T02:59:38.075Z,97534.92
2018-04-02T03:01:16.026Z,97504.04
2018-04-02T03:02:53.643Z,97509.26
2018-04-02T03:04:30.987Z,97491.41
2018-04-02T03:06:09.401Z,97468.04
2018-04-02T03:07:47.677Z,97433.24
2018-04-02T03:09:26.163Z,97401.55
2018-04-02T03:11:04.895Z,97380.30
2018-04-02T03:12:42.776Z,97400.23
2018-04-02T03:15:48.543Z,97421.98
2018-04-02T03:17:26.129Z,97469.81
2018-04-02T03:19:06.199Z,97603.56
2018-04-02T03:20:45.529Z,97760.11
2018-04-02T03:22:23.425Z,97751.80
2018-04-02T03:24:06.372Z,97622.66
2018-04-02T03:27:42.302Z,97448.08
2018-04-02T03:29:20.341Z,97410.22
2018-04-02T03:31:01.420Z,97410.66
2018-04-02T03:32:40.399Z,97406.73
2018-04-02T03:34:18.667Z,97438.05
2018-04-02T03:35:56.071Z,97481.50
2018-04-02T03:37:33.560Z,97512.78
2018-04-02T03:39:11.465Z,97547.07
2018-04-02T03:40:49.950Z,97568.39
2018-04-02T03:42:26.953Z,97555.76
2018-04-02T03:44:05.806Z,97539.22
2018-04-02T03:45:43.454Z,97537.93
2018-04-02T03:47:20.399Z,97526.64
2018-04-02T03:48:57.855Z,97494.98
2018-04-02T03:50:35.418Z,97477.14
2018-04-02T03:52:12.561Z,97481.92
2018-04-02T03:53:51.110Z,97448.88
2018-04-02T03:55:28.313Z,97442.03
2018-04-02T03:57:08.014Z,97413.66
2018-04-02T03:58:45.888Z,97419.30
2018-04-02T04:00:27.086Z,97427.17
2018-04-02T04:02:04.633Z,97436.77
2018-04-02T04:03:42.845Z,97451.94
2018-04-02T04:05:21.105Z,97463.69
2018-04-02T04:06:58.094Z,97449.39
2018-04-02T04:08:35.479Z,97457.18
2018-04-02T04:10:13.720Z,97495.38
2018-04-02T04:11:50.818Z,97504.12
2018-04-02T04:13:28.895Z,97551.05
2018-04-02T04:15:08.015Z,97561.37
2018-04-02T04:16:45.011Z,97569.68
2018-04-02T04:18:22.938Z,97613.62
2018-04-02T04:20:00.896Z,97626.20
2018-04-02T04:21:38.742Z,97583.18
2018-04-02T04:23:17.047Z,97512.32
2018-04-02T04:24:57.181Z,97469.30
2018-04-02T04:26:34.619Z,97424.11
2018-04-02T04:28:12.886Z,97388.58
2018-04-02T04:29:50.912Z,97362.53
2018-04-02T04:31:28.583Z,97317.37
2018-04-02T04:33:06.934Z,97287.41
2018-04-02T04:34:44.159Z,97235.81
2018-04-02T04:36:21.278Z,97202.78
2018-04-02T04:37:59.887Z,97205.04
2018-04-02T04:39:37.209Z,97206.27
2018-04-02T04:41:14.803Z,97211.62
2018-04-02T04:42:52.403Z,97156.41
2018-04-02T04:44:29.621Z,97146.46
2018-04-02T04:46:08.812Z,97156.03
2018-04-02T04:49:17.258Z,97156.01
2018-04-02T04:50:55.471Z,97166.02
2018-04-02T04:52:33.024Z,97171.65
2018-04-02T04:54:10.821Z,97147.32
2018-04-02T04:55:47.777Z,97142.17
2018-04-02T04:57:25.012Z,97136.09
2018-04-02T04:59:03.314Z,97136.55
2018-04-02T05:00:41.117Z,97133.12
2018-04-02T05:02:18.643Z,97120.91
2018-04-02T05:03:56.365Z,97120.08
2018-04-02T05:05:34.322Z,97124.83
2018-04-02T05:07:12.144Z,97108.00
2018-04-02T05:08:50.549Z,97128.80
2018-04-02T05:10:28.699Z,97134.44
2018-04-02T05:12:05.752Z,97137.38
2018-04-02T05:13:43.298Z,97173.87
2018-04-02T05:15:20.200Z,97156.87
2018-04-02T05:16:57.447Z,97169.50
2018-04-02T05:18:35.382Z,97195.09
2018-04-02T05:20:12.253Z,97207.61
2018-04-02T05:21:50.121Z,97204.61
2018-04-02T05:23:27.366Z,97170.73
2018-04-02T05:25:05.626Z,97171.67
2018-04-02T05:26:42.724Z,97166.88
2018-04-02T05:28:19.992Z,97169.02
2018-04-02T05:29:57.792Z,97140.00
2018-04-02T05:31:35.464Z,97128.34
2018-04-02T05:33:13.331Z,97107.88
2018-04-02T05:34:50.668Z,97112.25
2018-04-02T05:36:27.697Z,97105.31
2018-04-02T05:38:05.541Z,97110.97
2018-04-02T05:39:43.155Z,97133.91
2018-04-02T05:41:21.588Z,97125.69
2018-04-02T05:42:58.806Z,97134.80
2018-04-02T05:44:36.568Z,97146.12
2018-04-02T05:46:14.753Z,97147.01
2018-04-02T05:47:52.433Z,97165.10
2018-04-02T05:49:30.974Z,97162.92
2018-04-02T05:51:09.729Z,97157.72
2018-04-02T05:52:46.821Z,97179.02
2018-04-02T05:54:24.724Z,97181.14
2018-04-02T05:56:03.295Z,97184.66
2018-04-02T05:57:41.604Z,97197.23
2018-04-02T05:59:18.965Z,97216.77
2018-04-02T06:00:57.868Z,97259.27
2018-04-02T06:02:35.421Z,97282.72
2018-04-02T06:04:13.529Z,97297.03
2018-04-02T06:05:50.756Z,97305.73
2018-04-02T06:07:28.410Z,97329.62
2018-04-02T06:09:07.220Z,97350.86
2018-04-02T06:10:44.987Z,97339.55
2018-04-02T06:12:21.850Z,97355.20
2018-04-02T06:13:59.920Z,97365.19
2018-04-02T06:15:37.755Z,97368.66
2018-04-02T06:17:15.300Z,97407.33
2018-04-02T06:18:54.020Z,97414.69
2018-04-02T06:20:31.657Z,97409.87
2018-04-02T06:22:10.462Z,97428.48
2018-04-02T06:23:48.147Z,97438.52
2018-04-02T06:25:25.100Z,97433.88
2018-04-02T06:27:02.500Z,97417.23
2018-04-02T06:28:40.411Z,97469.44
2018-04-02T06:30:20.894Z,97492.44
2018-04-02T06:31:58.810Z,97511.55
2018-04-02T06:33:37.022Z,97536.75
2018-04-02T06:35:14.851Z,97541.08
2018-04-02T06:36:52.412Z,97556.73
2018-04-02T06:38:30.300Z,97524.98
2018-04-02T06:40:08.824Z,97518.98
2018-04-02T06:41:46.729Z,97544.61
2018-04-02T06:43:24.633Z,97565.44
2018-04-02T06:45:02.703Z,97569.36
2018-04-02T06:46:40.552Z,97587.16
2018-04-02T06:48:18.938Z,97599.74
2018-04-02T06:49:56.603Z,97646.30
2018-04-02T06:51:34.921Z,97658.89
2018-04-02T06:53:13.388Z,97644.09
2018-04-02T06:54:51.925Z,97636.75
2018-04-02T06:56:29.896Z,97635.00
2018-04-02T06:58:07.927Z,97617.14
2018-04-02T06:59:45.458Z,97630.24
2018-04-02T07:01:23.406Z,97649.77
2018-04-02T07:03:01.109Z,97663.30
2018-04-02T07:04:39.418Z,97668.92
2018-04-02T07:06:17.024Z,97660.66
2018-04-02T07:07:55.388Z,97662.36
2018-04-02T07:09:33.265Z,97675.45
2018-04-02T07:11:11.613Z,97672.42
2018-04-02T07:12:48.954Z,97693.75
2018-04-02T07:14:26.571Z,97723.78
2018-04-02T07:16:05.287Z,97705.48
2018-04-02T07:17:42.943Z,97729.03
2018-04-02T07:19:20.991Z,97738.55
2018-04-02T07:20:59.236Z,97730.70
2018-04-02T07:22:37.678Z,97736.41
2018-04-02T07:24:17.898Z,97741.14
2018-04-02T07:25:56.356Z,97732.94
2018-04-02T07:27:34.524Z,97741.16
2018-04-02T07:29:12.768Z,97740.27
2018-04-02T07:30:51.128Z,97774.73
2018-04-02T07:32:28.602Z,97792.09
2018-04-02T07:34:06.511Z,97820.39
2018-04-02T07:35:45.107Z,97852.67
2018-04-02T07:37:22.738Z,97856.05
2018-04-02T07:39:01.098Z,97872.66
2018-04-02T07:40:38.545Z,97944.08
2018-04-02T07:42:17.181Z,97993.72
2018-04-02T07:43:55.818Z,97971.54
2018-04-02T07:45:33.402Z,97981.94
2018-04-02T07:47:11.480Z,98008.14
2018-04-02T07:48:49.346Z,97996.33
2018-04-02T07:50:26.856Z,98057.42
2018-04-02T07:52:04.899Z,98061.77
2018-04-02T07:53:42.408Z,98071.79
2018-04-02T07:55:19.801Z,98031.72
2018-04-02T07:56:57.249Z,98002.05
2018-04-02T07:58:34.884Z,98020.81
2018-04-02T08:00:15.830Z,98046.55
2018-04-02T08:01:53.870Z,98061.38
2018-04-02T08:03:31.740Z,98092.77
2018-04-02T08:05:10.045Z,98135.91
2018-04-02T08:06:47.935Z,98189.97
2018-04-02T08:08:25.471Z,98181.27
2018-04-02T08:10:03.418Z,98209.62
2018-04-02T08:11:41.551Z,98247.20
2018-04-02T08:13:21.900Z,98322.75
2018-04-02T08:14:59.184Z,98267.28
2018-04-02T08:16:37.485Z,98248.06
2018-04-02T08:18:16.033Z,98279.11
2018-04-02T08:19:54.864Z,98275.19
2018-04-02T08:21:32.311Z,98328.91
2018-04-02T08:23:10.849Z,98351.10
2018-04-02T08:24:48.733Z,98337.14
2018-04-02T08:26:27.153Z,98361.16
2018-04-02T08:28:05.596Z,98374.66
2018-04-02T08:29:43.401Z,98386.06
2018-04-02T08:31:22.053Z,98407.42
2018-04-02T08:32:59.919Z,98412.27
2018-04-02T08:34:37.190Z,98406.14
2018-04-02T08:36:15.267Z,98395.69
2018-04-02T08:37:52.533Z,98486.06
2018-04-02T08:39:32.437Z,98567.42
2018-04-02T08:41:09.629Z,98597.61
2018-04-02T08:42:47.208Z,98539.94
2018-04-02T08:44:24.569Z,98555.66
2018-04-02T08:46:01.889Z,98532.52
2018-04-02T08:47:39.742Z,98580.59
2018-04-02T08:49:16.868Z,98666.73
2018-04-02T08:50:54.239Z,98853.70
2018-04-02T08:52:32.087Z,98940.86
2018-04-02T08:54:10.283Z,99020.31
2018-04-02T08:55:47.524Z,99020.31
2018-04-02T08:57:27.110Z,99008.93
2018-04-02T08:59:05.541Z,99048.41
2018-04-02T09:00:43.350Z,99140.50
2018-04-02T09:02:20.963Z,99173.02
2018-04-02T09:03:58.279Z,99322.33
2018-04-02T09:05:36.424Z,99542.93
2018-04-02T09:07:14.140Z,99763.06
2018-04-02T09:08:51.664Z,99933.59
2018-04-02T09:10:28.920Z,100077.84
2018-04-02T09:12:06.350Z,100056.67
2018-04-02T09:13:43.765Z,100125.08
2018-04-02T09:15:22.059Z,99963.64
2018-04-02T09:17:02.752Z,99953.52
2018-04-02T09:18:41.004Z,99569.89
2018-04-02T09:20:18.194Z,99303.51
2018-04-02T09:21:56.881Z,99376.44
2018-04-02T09:23:35.075Z,99568.56
2018-04-02T09:25:12.212Z,99693.08
2018-04-02T09:26:49.523Z,99804.55
2018-04-02T09:28:28.714Z,99957.03
2018-04-02T09:30:05.967Z,99897.06
2018-04-02T09:31:43.516Z,99791.73
2018-04-02T09:33:21.958Z,99624.44
2018-04-02T09:34:59.466Z,99400.56
2018-04-02T09:36:36.471Z,99327.66
2018-04-02T09:38:13.713Z,99473.55
2018-04-02T09:39:52.112Z,99602.81
2018-04-02T09:41:29.701Z,99646.44
2018-04-02T09:43:06.655Z,99843.78
2018-04-02T09:44:43.883Z,100020.99
2018-04-02T09:46:21.633Z,100111.42
2018-04-02T09:47:59.421Z,100198.48
2018-04-02T09:49:37.310Z,100244.40
2018-04-02T09:51:15.248Z,100332.75
2018-04-02T09:52:52.823Z,99992.30
2018-04-02T09:54:30.701Z,99681.23
2018-04-02T09:56:08.352Z,99565.48
2018-04-02T09:57:45.550Z,99517.55
2018-04-02T09:59:22.610Z,99685.22
2018-04-02T10:01:01.794Z,99899.73
2018-04-02T10:02:43.663Z,100030.69
2018-04-02T10:04:22.612Z,100241.75
2018-04-02T10:06:00.239Z,100413.22
2018-04-02T10:07:37.729Z,100430.04
2018-04-02T10:09:16.226Z,100273.16
2018-04-02T10:10:53.259Z,100388.48
2018-04-02T10:12:30.376Z,100573.80
2018-04-02T10:14:08.506Z,100479.56
2018-04-02T10:15:46.190Z,100323.97
2018-04-02T10:17:24.901Z,100170.20
2018-04-02T10:19:02.073Z,100106.67
2018-04-02T10:20:39.999Z,100079.73
2018-04-02T10:22:17.534Z,100278.91
2018-04-02T10:23:54.631Z,100438.02
2018-04-02T10:25:31.681Z,100460.13
2018-04-02T10:27:08.663Z,100346.08
2018-04-02T10:28:46.418Z,100431.38
2018-04-02T10:30:25.013Z,100465.43
2018-04-02T10:32:02.394Z,100335.88
2018-04-02T10:33:39.715Z,100501.73
2018-04-02T10:35:16.805Z,100332.80
2018-04-02T10:36:53.907Z,100162.23
2018-04-02T10:38:31.911Z,100007.36
2018-04-02T10:40:08.971Z,100066.50
2018-04-02T10:41:46.178Z,100162.67
2018-04-02T10:43:23.437Z,100196.78
2018-04-02T10:45:01.138Z,100329.24
2018-04-02T10:46:40.453Z,100425.66
2018-04-02T10:48:17.720Z,100616.26
2018-04-02T10:49:56.156Z,100713.77
2018-04-02T10:51:33.196Z,100887.48
2018-04-02T10:53:10.189Z,100934.91
2018-04-02T10:54:47.300Z,101043.15
2018-04-02T10:56:24.590Z,101005.42
2018-04-02T10:58:02.284Z,101037.41
2018-04-02T10:59:39.905Z,101011.66
2018-04-02T11:01:17.669Z,100986.37
2018-04-02T11:02:56.192Z,100926.91
2018-04-02T11:04:34.969Z,100793.03
2018-04-02T11:06:11.982Z,100508.79
2018-04-02T11:07:49.405Z,100660.59
2018-04-02T11:09:27.735Z,100852.02
2018-04-02T11:11:04.889Z,100974.00
2018-04-02T11:12:42.969Z,101037.40
2018-04-02T11:14:20.043Z,100934.03
2018-04-02T11:15:57.660Z,101011.23
2018-04-02T11:17:34.783Z,100883.91
2018-04-02T11:19:12.909Z,100896.31
2018-04-02T11:20:50.404Z,100911.86
2018-04-02T11:22:31.017Z,100826.72
2018-04-02T11:24:08.204Z,100560.54
2018-04-02T11:25:45.570Z,100630.48
2018-04-02T11:27:26.721Z,100770.88
2018-04-02T11:29:04.136Z,100940.20
2018-04-02T11:30:42.195Z,101008.53
2018-04-02T11:32:19.738Z,101103.95
2018-04-02T11:33:57.744Z,101063.53
2018-04-02T11:35:35.484Z,101099.95
2018-04-02T11:37:13.757Z,100986.83
2018-04-02T11:38:51.689Z,100984.16
2018-04-02T11:40:29.071Z,100996.13
2018-04-02T11:42:06.270Z,101119.47
2018-04-02T11:43:43.231Z,101206.96
2018-04-02T11:45:20.740Z,101240.73
2018-04-02T11:46:58.437Z,101162.52
2018-04-02T11:48:35.592Z,101238.97
2018-04-02T11:50:13.845Z,101336.27
2018-04-02T11:51:51.968Z,101344.73
2018-04-02T11:53:29.519Z,101386.97
2018-04-02T11:55:07.668Z,101227.87
2018-04-02T11:56:44.733Z,100797.02
2018-04-02T11:58:22.056Z,100793.47
2018-04-02T11:59:59.684Z,100967.26
2018-04-02T12:01:37.358Z,100923.37
2018-04-02T12:03:14.958Z,101095.92
2018-04-02T12:04:52.760Z,100969.91
2018-04-02T12:06:30.642Z,101080.41
2018-04-02T12:08:08.321Z,101137.20
2018-04-02T12:09:46.090Z,100874.56
2018-04-02T12:11:23.902Z,100832.47
2018-04-02T12:13:01.985Z,101065.28
2018-04-02T12:14:40.021Z,101135.44
2018-04-02T12:16:17.261Z,101310.48
2018-04-02T12:17:54.993Z,101346.45
2018-04-02T12:19:32.757Z,101373.13
2018-04-02T12:21:10.098Z,101409.60
2018-04-02T12:22:47.696Z,101438.97
2018-04-02T12:24:24.963Z,101214.05
2018-04-02T12:26:02.682Z,101244.27
2018-04-02T12:27:40.218Z,101341.14
2018-04-02T12:29:17.713Z,101146.52
2018-04-02T12:30:55.356Z,101031.09
2018-04-02T12:32:33.154Z,100948.61
2018-04-02T12:34:10.165Z,100916.67
2018-04-02T12:35:50.221Z,101001.41
2018-04-02T12:37:27.491Z,101128.74
2018-04-02T12:39:06.164Z,101197.64
2018-04-02T12:40:43.807Z,101129.19
2018-04-02T12:42:21.921Z,101286.89
2018-04-02T12:43:59.188Z,101223.77
2018-04-02T12:45:36.695Z,101066.11
2018-04-02T12:47:13.700Z,101020.91
2018-04-02T12:48:51.897Z,101014.23
2018-04-02T12:50:28.867Z,101005.80
2018-04-02T12:52:06.116Z,100945.87
2018-04-02T12:53:43.395Z,101023.53
2018-04-02T12:55:21.104Z,101199.34
2018-04-02T12:56:58.369Z,101029.28
2018-04-02T12:58:35.659Z,101127.37
2018-04-02T13:00:12.820Z,101077.20
2018-04-02T13:01:53.042Z,101084.77
2018-04-02T13:03:30.363Z,101283.28
2018-04-02T13:05:07.634Z,101384.62
2018-04-02T13:06:45.265Z,101454.89
2018-04-02T13:08:22.818Z,101459.84
2018-04-02T13:09:59.847Z,101549.25
2018-04-02T13:11:36.946Z,101551.91
2018-04-02T13:13:14.709Z,101534.09
2018-04-02T13:14:53.173Z,101468.25
2018-04-02T13:16:30.337Z,101428.64
2018-04-02T13:18:07.457Z,101460.23
2018-04-02T13:19:45.224Z,101420.20
2018-04-02T13:21:23.665Z,101386.83
2018-04-02T13:23:01.263Z,101228.16
2018-04-02T13:24:38.395Z,100960.45
2018-04-02T13:26:16.199Z,101117.98
2018-04-02T13:27:54.795Z,101078.89
2018-04-02T13:29:32.366Z,101064.69
2018-04-02T13:31:09.485Z,100995.89
2018-04-02T13:32:46.392Z,100983.08
2018-04-02T13:34:27.876Z,101097.13
2018-04-02T13:36:06.852Z,101259.25
2018-04-02T13:37:45.066Z,101327.66
2018-04-02T13:39:23.042Z,101369.44
2018-04-02T13:41:00.400Z,101433.94
2018-04-02T13:42:37.884Z,101456.62
2018-04-02T13:44:14.922Z,101447.72
2018-04-02T13:45:54.384Z,101324.53
2018-04-02T13:47:32.323Z,101334.72
2018-04-02T13:49:09.264Z,101402.79
2018-04-02T13:50:46.396Z,101410.37
2018-04-02T13:52:23.850Z,101184.98
2018-04-02T13:54:00.984Z,100868.63
2018-04-02T13:55:38.625Z,100636.43
2018-04-02T13:57:16.411Z,100568.70
2018-04-02T13:58:54.600Z,100501.42
2018-04-02T14:00:32.039Z,100485.51
2018-04-02T14:02:09.029Z,100477.07
2018-04-02T14:03:46.153Z,100518.70
2018-04-02T14:05:23.355Z,100547.45
2018-04-02T14:07:02.409Z,100512.46
2018-04-02T14:08:40.229Z,100504.94
2018-04-02T14:10:17.605Z,100578.82
2018-04-02T14:11:54.562Z,100615.09
2018-04-02T14:13:32.062Z,100637.67
2018-04-02T14:15:10.145Z,100662.91
2018-04-02T14:16:48.512Z,100758.59
2018-04-02T14:18:25.581Z,100813.98
2018-04-02T14:20:03.424Z,100817.52
2018-04-02T14:21:41.197Z,100742.19
2018-04-02T14:23:19.262Z,100721.84
2018-04-02T14:24:57.219Z,100711.19
2018-04-02T14:26:34.350Z,100705.41
2018-04-02T14:28:11.889Z,100748.36
2018-04-02T14:29:49.026Z,100798.86
2018-04-02T14:31:26.349Z,100814.86
2018-04-02T14:33:03.764Z,100777.16
2018-04-02T14:34:41.309Z,100772.34
2018-04-02T14:36:18.922Z,100781.60
2018-04-02T14:37:56.905Z,100798.86
2018-04-02T14:39:33.790Z,100769.16
2018-04-02T14:41:11.235Z,100801.96
2018-04-02T14:42:48.346Z,100856.48
2018-04-02T14:44:26.706Z,100994.41
2018-04-02T14:46:06.599Z,101198.20
2018-04-02T14:47:47.247Z,101403.52
2018-04-02T14:49:25.337Z,101484.92
2018-04-02T14:51:03.434Z,101591.80
2018-04-02T14:52:40.620Z,101717.38
2018-04-02T14:54:18.433Z,101621.58
2018-04-02T14:55:56.016Z,101561.52
2018-04-02T14:57:34.184Z,101429.30
2018-04-02T14:59:11.693Z,101516.09
2018-04-02T15:00:50.528Z,101697.79
2018-04-02T15:02:27.934Z,101657.22
2018-04-02T15:04:06.261Z,101745.45
2018-04-02T15:05:43.763Z,101722.23
2018-04-02T15:07:21.242Z,101713.79
2018-04-02T15:08:59.229Z,101716.47
2018-04-02T15:10:36.581Z,101329.25
2018-04-02T15:12:13.901Z,101209.26
2018-04-02T15:13:51.401Z,101287.47
2018-04-02T15:15:30.153Z,101326.13
2018-04-02T15:17:07.438Z,101460.44
2018-04-02T15:18:45.076Z,101325.22
2018-04-02T15:20:22.988Z,101350.56
2018-04-02T15:21:59.996Z,101460.87
2018-04-02T15:23:37.547Z,101440.37
2018-04-02T15:25:15.359Z,101360.80
2018-04-02T15:26:53.134Z,101305.66
2018-04-02T15:28:30.102Z,101358.52
2018-04-02T15:30:07.302Z,101402.14
2018-04-02T15:31:45.696Z,101578.81
2018-04-02T15:33:22.842Z,101753.81
2018-04-02T15:35:00.972Z,101809.08
2018-04-02T15:36:39.005Z,101535.59
2018-04-02T15:38:16.697Z,101348.31
2018-04-02T15:39:54.616Z,101227.45
2018-04-02T15:41:33.429Z,101274.95
2018-04-02T15:43:11.424Z,101377.22
2018-04-02T15:44:49.536Z,101260.27
2018-04-02T15:46:27.634Z,101171.45
2018-04-02T15:48:05.139Z,101245.62
2018-04-02T15:49:44.356Z,101212.73
2018-04-02T15:51:22.352Z,101010.66
2018-04-02T15:53:00.985Z,101032.47
2018-04-02T15:55:06.771Z,101132.32
2018-04-02T15:58:10.774Z,101065.71
2018-04-02T16:00:13.760Z,100929.89
2018-04-02T16:02:02.836Z,100890.91
2018-04-02T16:03:40.803Z,100834.11
2018-04-02T16:05:18.218Z,100798.25
2018-04-02T16:07:00.173Z,100783.61
2018-04-02T16:08:51.115Z,100788.48
2018-04-02T16:10:42.991Z,100866.92
2018-04-02T16:12:26.158Z,100933.43
2018-04-02T16:14:04.683Z,101112.33
2018-04-02T16:15:42.966Z,101031.05
2018-04-02T16:17:20.091Z,100913.47
2018-04-02T16:18:57.572Z,100846.94
2018-04-02T16:20:35.932Z,100853.59
2018-04-02T16:22:13.910Z,100792.89
2018-04-02T16:23:51.088Z,100746.31
2018-04-02T16:25:28.483Z,100686.08
2018-04-02T16:27:06.614Z,100682.09
2018-04-02T16:28:45.212Z,100624.52
2018-04-02T16:30:22.417Z,100613.48
2018-04-02T16:32:02.959Z,100600.63
2018-04-02T16:33:40.038Z,100597.05
2018-04-02T16:35:17.871Z,100605.48
2018-04-02T16:36:55.426Z,100595.77
2018-04-02T16:38:33.609Z,100614.77
2018-04-02T16:40:11.029Z,100613.00
2018-04-02T16:41:48.100Z,100629.83
2018-04-02T16:43:25.528Z,100633.81
2018-04-02T16:45:03.351Z,100645.30
2018-04-02T16:46:40.611Z,100598.34
2018-04-02T16:48:18.907Z,100589.03
2018-04-02T16:49:59.458Z,100595.70
2018-04-02T16:51:39.257Z,100591.27
2018-04-02T16:53:18.034Z,100625.81
2018-04-02T16:54:58.836Z,100619.61
2018-04-02T16:56:39.400Z,100597.45
2018-04-02T16:58:18.948Z,100582.41
2018-04-02T16:59:58.224Z,100581.09
2018-04-02T17:01:39.364Z,100597.45
2018-04-02T17:03:17.152Z,100605.42
2018-04-02T17:04:54.499Z,100599.66
2018-04-02T17:06:31.720Z,100608.50
2018-04-02T17:08:09.021Z,100608.48
2018-04-02T17:09:47.632Z,100611.17
2018-04-02T17:11:25.810Z,100627.94
2018-04-02T17:13:03.153Z,100596.09
2018-04-02T17:14:40.927Z,100588.55
2018-04-02T17:16:20.086Z,100548.28
2018-04-02T17:17:58.195Z,100554.47
2018-04-02T17:19:36.357Z,100550.47
2018-04-02T17:21:13.807Z,100547.80
2018-04-02T17:22:51.874Z,100562.87
2018-04-02T17:24:29.778Z,100574.78
2018-04-02T17:26:08.171Z,100604.48
2018-04-02T17:27:47.475Z,100619.11
2018-04-02T17:29:25.342Z,100681.95
2018-04-02T17:31:02.886Z,100704.98
2018-04-02T17:32:44.298Z,100714.29
2018-04-02T17:34:21.504Z,100689.48
2018-04-02T17:36:01.878Z,100687.21
2018-04-02T17:37:40.326Z,100696.54
2018-04-02T17:39:17.462Z,100768.33
2018-04-02T17:40:55.850Z,100781.17
2018-04-02T17:42:33.923Z,100711.56
2018-04-02T17:44:11.985Z,100689.44
2018-04-02T17:45:50.907Z,100748.81
2018-04-02T17:47:28.394Z,100717.34
2018-04-02T17:49:06.061Z,100673.94
2018-04-02T17:50:43.302Z,100626.13
2018-04-02T17:52:20.913Z,100602.66
2018-04-02T17:53:59.313Z,100571.20
2018-04-02T17:55:36.800Z,100535.35
2018-04-02T17:57:13.920Z,100507.45
2018-04-02T17:58:51.261Z,100476.47
2018-04-02T18:00:30.746Z,100538.91
2018-04-02T18:02:08.667Z,100598.66
2018-04-02T18:03:45.743Z,100619.89
2018-04-02T18:05:23.250Z,100730.58
2018-04-02T18:07:00.595Z,100902.56
2018-04-02T18:08:38.833Z,101056.11
2018-04-02T18:11:49.780Z,101100.50
2018-04-02T18:13:27.935Z,101209.73
2018-04-02T18:15:06.022Z,101219.08
2018-04-02T18:18:19.445Z,101203.09
2018-04-02T18:19:57.927Z,101165.75
2018-04-02T18:21:35.820Z,101017.97
2018-04-02T18:23:13.100Z,101126.26
2018-04-02T18:24:50.430Z,101029.02
2018-04-02T18:26:28.055Z,101049.89
2018-04-02T18:28:08.442Z,101156.89
2018-04-02T18:29:45.522Z,101230.64
2018-04-02T18:31:24.259Z,101149.34
2018-04-02T18:33:01.370Z,101186.19
2018-04-02T18:34:38.630Z,101231.04
2018-04-02T18:36:15.949Z,101275.07
2018-04-02T18:37:54.992Z,101245.29
2018-04-02T18:39:33.141Z,101074.27
2018-04-02T18:41:10.666Z,100874.61
2018-04-02T18:42:48.791Z,100750.05
2018-04-02T18:44:26.191Z,100754.49
2018-04-02T18:46:05.479Z,100654.80
2018-04-02T18:47:42.812Z,100631.78
2018-04-02T18:49:20.825Z,100610.55
2018-04-02T18:50:58.127Z,100799.23
2018-04-02T18:52:35.093Z,100913.12
2018-04-02T18:54:12.333Z,100925.59
2018-04-02T18:55:49.748Z,100759.36
2018-04-02T18:57:26.740Z,100661.00
2018-04-02T18:59:03.653Z,100545.95
2018-04-02T19:00:41.173Z,100520.22
2018-04-02T19:02:18.568Z,100404.28
2018-04-02T19:03:56.378Z,100453.01
2018-04-02T19:05:33.582Z,100586.16
2018-04-02T19:07:10.643Z,100728.30